Time;durP1;ratioP1;P1;durP2;ratioP2;P2;SDS_P1;SDS_P2;PMS_P1;PMS_P2;Temp;Humidity;BMP_temperature;BMP_pressure;BME280_temperature;BME280_humidity;BME280_pressure;Samples;Min_cycle;Max_cycle;Signal;HPM_P1;HPM_P2
2022/09/04 00:00:13;;;;;;;10.25;3.83;;;;;;;-144.48;100.00;62369.91;5027654;28;20017;-67
2022/09/04 00:03:12;;;;;;;9.23;3.95;;;;;;;-144.48;100.00;62369.91;5018192;28;20096;-68
2022/09/04 00:05:50;;;;;;;12.45;4.07;;;;;;;-144.48;100.00;62369.91;5005929;28;20065;-68
2022/09/04 00:08:49;;;;;;;15.75;4.18;;;;;;;-144.48;100.00;62369.91;5021993;28;20022;-68
2022/09/04 00:11:20;;;;;;;;;;;;;;;-144.48;100.00;62369.91;5016265;28;20092;-66
2022/09/04 00:14:36;;;;;;;12.75;4.03;;;;;;;-144.48;100.00;62369.91;5010190;28;19914;-64
2022/09/04 00:17:09;;;;;;;14.57;5.05;;;;;;;-144.48;100.00;62369.91;5025799;28;20033;-67
2022/09/04 00:19:58;;;;;;;9.15;4.05;;;;;;;-144.48;100.00;62369.91;5027005;28;20040;-68
2022/09/04 00:22:26;;;;;;;10.23;3.60;;;;;;;-144.48;100.00;62369.91;5019844;28;20034;-65
2022/09/04 00:25:06;;;;;;;8.77;3.58;;;;;;;-144.48;100.00;62369.91;5025806;28;20131;-68
2022/09/04 00:27:43;;;;;;;11.10;3.28;;;;;;;-144.48;100.00;62369.91;5028368;28;20742;-67
2022/09/04 00:30:13;;;;;;;9.93;3.80;;;;;;;-144.48;100.00;62369.91;5021214;28;20060;-66
2022/09/04 00:32:44;;;;;;;10.55;3.72;;;;;;;-144.48;100.00;62369.91;5023325;28;20033;-66
2022/09/04 00:35:13;;;;;;;9.75;4.53;;;;;;;-144.48;100.00;62369.91;4997809;28;20022;-67
2022/09/04 00:37:42;;;;;;;;;;;;;;;-144.48;100.00;62369.91;5024104;28;20036;-66
2022/09/04 00:40:31;;;;;;;10.80;3.42;;;;;;;-144.48;100.00;62369.91;5028535;28;19985;-68
2022/09/04 00:43:24;;;;;;;14.13;4.65;;;;;;;-144.48;100.00;62369.91;5028977;28;20029;-68
2022/09/04 00:46:08;;;;;;;14.48;4.30;;;;;;;-144.48;100.00;62369.91;5025928;28;20101;-66
2022/09/04 00:49:02;;;;;;;10.82;4.75;;;;;;;-144.48;100.00;62369.91;5021236;28;20076;-67
2022/09/04 00:51:52;;;;;;;11.43;4.25;;;;;;;-144.48;100.00;62369.91;5017224;28;20029;-67
2022/09/04 00:54:36;;;;;;;10.38;4.00;;;;;;;-144.48;100.00;62369.91;4998570;28;20539;-66
2022/09/04 00:57:18;;;;;;;11.75;3.88;;;;;;;-144.48;100.00;62369.91;5010914;28;20068;-68
2022/09/04 01:00:14;;;;;;;12.00;4.03;;;;;;;-144.48;100.00;62369.91;5026321;28;20025;-67
2022/09/04 01:03:02;;;;;;;10.60;4.25;;;;;;;-144.48;100.00;62369.91;5033234;28;20514;-69
2022/09/04 01:05:46;;;;;;;12.88;4.22;;;;;;;-144.48;100.00;62369.91;5033036;28;20026;-67
2022/09/04 01:08:19;;;;;;;9.50;3.72;;;;;;;-144.48;100.00;62369.91;5028714;28;20098;-66
2022/09/04 01:11:09;;;;;;;9.32;3.97;;;;;;;-144.48;100.00;62369.91;5012913;28;20162;-67
2022/09/04 01:13:44;;;;;;;8.43;3.72;;;;;;;-144.48;100.00;62369.91;5020328;28;20040;-67
2022/09/04 01:16:18;;;;;;;10.60;4.15;;;;;;;-144.48;100.00;62369.91;5031483;28;20487;-67
2022/09/04 01:19:03;;;;;;;12.35;3.90;;;;;;;-144.48;100.00;62369.91;5023462;28;20030;-68
2022/09/04 01:21:58;;;;;;;7.65;3.88;;;;;;;-144.48;100.00;62369.91;5029757;28;20030;-67
2022/09/04 01:24:38;;;;;;;10.15;4.03;;;;;;;-144.48;100.00;62369.91;5013737;28;20033;-69
2022/09/04 01:27:08;;;;;;;12.50;3.78;;;;;;;-144.48;100.00;62369.91;5011731;28;20018;-66
2022/09/04 01:29:55;;;;;;;8.02;3.30;;;;;;;-144.48;100.00;62369.91;5030961;28;20025;-69
2022/09/04 01:32:51;;;;;;;9.93;3.63;;;;;;;-144.48;100.00;62369.91;5032462;28;20021;-67
2022/09/04 01:35:36;;;;;;;9.63;3.60;;;;;;;-144.48;100.00;62369.91;5016834;28;20045;-66
2022/09/04 01:38:31;;;;;;;10.13;3.90;;;;;;;-144.48;100.00;62369.91;5020489;28;20104;-67
2022/09/04 01:41:06;;;;;;;10.98;4.20;;;;;;;-144.48;100.00;62369.91;5013709;28;20022;-67
2022/09/04 01:43:31;;;;;;;12.35;3.83;;;;;;;-144.48;100.00;62369.91;5013052;28;20030;-66
2022/09/04 01:46:13;;;;;;;12.07;4.30;;;;;;;-144.48;100.00;62369.91;5025609;28;20037;-68
2022/09/04 01:48:41;;;;;;;10.98;4.38;;;;;;;-144.48;100.00;62369.91;5026928;28;20067;-69
2022/09/04 01:51:44;;;;;;;11.55;3.92;;;;;;;-144.48;100.00;62369.91;5023294;28;20030;-69
2022/09/04 01:54:47;;;;;;;11.10;4.10;;;;;;;-144.48;100.00;62369.91;5006250;28;20033;-66
2022/09/04 01:57:17;;;;;;;6.82;3.33;;;;;;;-144.48;100.00;62369.91;5018395;28;20095;-68
2022/09/04 02:00:08;;;;;;;13.25;4.10;;;;;;;-144.48;100.00;62369.91;5018391;28;20030;-67
2022/09/04 02:02:59;;;;;;;9.73;4.18;;;;;;;-144.48;100.00;62369.91;5012167;28;20098;-69
2022/09/04 02:05:47;;;;;;;13.13;4.70;;;;;;;-144.48;100.00;62369.91;5014307;28;20061;-68
2022/09/04 02:08:34;;;;;;;8.18;3.83;;;;;;;-144.48;100.00;62369.91;5024152;28;20104;-66
2022/09/04 02:11:20;;;;;;;10.80;3.90;;;;;;;-144.48;100.00;62369.91;5011583;28;20480;-69
2022/09/04 02:14:07;;;;;;;8.50;3.50;;;;;;;-144.48;100.00;62369.91;5019687;28;20037;-69
2022/09/04 02:16:35;;;;;;;11.35;4.10;;;;;;;-144.48;100.00;62369.91;5031374;28;20025;-65
2022/09/04 02:19:00;;;;;;;14.73;3.73;;;;;;;-144.48;100.00;62369.91;5031881;28;20506;-66
2022/09/04 02:21:36;;;;;;;12.60;3.88;;;;;;;-144.48;100.00;62369.91;5019030;28;20033;-68
2022/09/04 02:24:24;;;;;;;6.55;3.45;;;;;;;-144.48;100.00;62369.91;5031479;28;20496;-66
2022/09/04 02:26:58;;;;;;;9.40;4.22;;;;;;;-144.48;100.00;62369.91;5022337;28;20553;-68
2022/09/04 02:29:52;;;;;;;14.75;4.15;;;;;;;-144.48;100.00;62369.91;5018173;28;20030;-67
2022/09/04 02:32:28;;;;;;;12.18;3.97;;;;;;;-144.48;100.00;62369.91;5026229;28;20512;-67
2022/09/04 02:35:34;;;;;;;8.75;4.15;;;;;;;-144.48;100.00;62369.91;5022802;28;20025;-67
2022/09/04 02:38:38;;;;;;;12.88;4.10;;;;;;;-144.48;100.00;62369.91;5030655;28;20029;-67
2022/09/04 02:41:15;;;;;;;9.93;3.90;;;;;;;-144.48;100.00;62369.91;5030734;28;20032;-67
2022/09/04 02:44:01;;;;;;;7.97;4.15;;;;;;;-144.48;100.00;62369.91;5029694;28;20070;-68
2022/09/04 02:46:52;;;;;;;8.90;3.85;;;;;;;-144.48;100.00;62369.91;5021668;28;20026;-68
2022/09/04 02:49:29;;;;;;;11.30;3.92;;;;;;;-144.48;100.00;62369.91;5030795;28;20560;-67
2022/09/04 02:52:32;;;;;;;11.77;4.38;;;;;;;-144.48;100.00;62369.91;5012837;28;20037;-69
2022/09/04 02:55:28;;;;;;;15.88;4.13;;;;;;;-144.48;100.00;62369.91;5006182;28;20088;-66
2022/09/04 02:58:15;;;;;;;8.45;3.95;;;;;;;-144.48;100.00;62369.91;5019615;28;20172;-67
2022/09/04 03:01:00;;;;;;;14.15;4.18;;;;;;;-144.48;100.00;62369.91;5031359;28;20101;-67
2022/09/04 03:03:37;;;;;;;11.57;4.15;;;;;;;-144.48;100.00;62369.91;5018123;28;20033;-68
2022/09/04 03:06:12;;;;;;;10.32;4.03;;;;;;;-144.48;100.00;62369.91;5019394;28;20073;-68
2022/09/04 03:08:58;;;;;;;10.70;4.45;;;;;;;-144.48;100.00;62369.91;5017087;28;20083;-67
2022/09/04 03:11:47;;;;;;;9.88;4.00;;;;;;;-144.48;100.00;62369.91;5028549;28;20112;-67
2022/09/04 03:14:24;;;;;;;8.98;3.75;;;;;;;-144.48;100.00;62369.91;5022827;28;20056;-67
2022/09/04 03:17:19;;;;;;;8.70;3.78;;;;;;;-144.48;100.00;62369.91;5030312;28;20028;-68
2022/09/04 03:20:02;;;;;;;18.00;4.55;;;;;;;-144.48;100.00;62369.91;5016218;28;20023;-68
2022/09/04 03:22:35;;;;;;;13.73;4.55;;;;;;;-144.48;100.00;62369.91;5016970;28;20026;-68
2022/09/04 03:25:22;;;;;;;8.30;4.32;;;;;;;-144.48;100.00;62369.91;5018301;28;20484;-68
2022/09/04 03:27:47;;;;;;;13.10;3.78;;;;;;;-144.48;100.00;62369.91;5012204;28;20021;-66
2022/09/04 03:30:14;;;;;;;10.15;4.47;;;;;;;-144.48;100.00;62369.91;5030508;28;20024;-66
2022/09/04 03:32:50;;;;;;;22.58;4.60;;;;;;;-144.48;100.00;62369.91;5026593;28;20026;-66
2022/09/04 03:35:32;;;;;;;10.60;4.25;;;;;;;-144.48;100.00;62369.91;5014234;28;20032;-66
2022/09/04 03:38:16;;;;;;;9.18;4.50;;;;;;;-144.48;100.00;62369.91;5008529;28;20034;-68
2022/09/04 03:40:44;;;;;;;12.80;4.68;;;;;;;-144.48;100.00;62369.91;5009956;28;20155;-68
2022/09/04 03:43:35;;;;;;;12.35;4.57;;;;;;;-144.48;100.00;62369.91;5010065;28;20022;-68
2022/09/04 03:46:14;;;;;;;9.95;3.92;;;;;;;-144.48;100.00;62369.91;5017612;28;20029;-66
2022/09/04 03:48:45;;;;;;;11.13;4.22;;;;;;;-144.48;100.00;62369.91;5014837;28;20040;-68
2022/09/04 03:51:26;;;;;;;10.82;4.70;;;;;;;-144.48;100.00;62369.91;5010221;28;20120;-67
2022/09/04 03:54:18;;;;;;;12.07;5.13;;;;;;;-144.48;100.00;62369.91;5015409;28;20033;-68
2022/09/04 03:56:52;;;;;;;11.68;5.05;;;;;;;-144.48;100.00;62369.91;5029737;28;20479;-66
2022/09/04 03:59:38;;;;;;;10.70;4.38;;;;;;;-144.48;100.00;62369.91;5030044;28;20029;-68
2022/09/04 04:02:17;;;;;;;8.48;4.35;;;;;;;-144.48;100.00;62369.91;5015961;28;20026;-67
2022/09/04 04:05:13;;;;;;;10.02;4.80;;;;;;;-144.48;100.00;62369.91;5009847;28;20022;-67
2022/09/04 04:08:02;;;;;;;17.98;5.30;;;;;;;-144.48;100.00;62369.91;5009669;28;20083;-67
2022/09/04 04:10:46;;;;;;;11.00;5.07;;;;;;;-144.48;100.00;62369.91;5029147;28;20025;-67
2022/09/04 04:13:32;;;;;;;11.82;4.35;;;;;;;-144.48;100.00;62369.91;5012928;28;20323;-68
2022/09/04 04:16:21;;;;;;;9.20;4.43;;;;;;;-144.48;100.00;62369.91;5022179;28;20493;-67
2022/09/04 04:19:20;;;;;;;13.25;4.70;;;;;;;-144.48;100.00;62369.91;5019994;28;20124;-69
2022/09/04 04:22:22;;;;;;;9.63;4.75;;;;;;;-144.48;100.00;62369.91;5029791;28;20025;-68
2022/09/04 04:25:11;;;;;;;11.15;4.80;;;;;;;-144.48;100.00;62369.91;5010669;28;20116;-66
2022/09/04 04:27:59;;;;;;;12.82;5.40;;;;;;;-144.48;100.00;62369.91;5011385;28;20327;-69
2022/09/04 04:30:43;;;;;;;11.13;4.93;;;;;;;-144.48;100.00;62369.91;5029887;28;20052;-68
2022/09/04 04:33:08;;;;;;;12.07;4.47;;;;;;;-144.48;100.00;62369.91;5016646;28;20367;-69
2022/09/04 04:35:39;;;;;;;14.13;5.03;;;;;;;-144.48;100.00;62369.91;5027050;28;20037;-67
2022/09/04 04:38:29;;;;;;;10.43;5.30;;;;;;;-144.48;100.00;62369.91;5033164;28;20025;-67
2022/09/04 04:41:04;;;;;;;10.40;4.85;;;;;;;-144.48;100.00;62369.91;5033953;28;20403;-68
2022/09/04 04:43:38;;;;;;;9.13;4.70;;;;;;;-144.48;100.00;62369.91;5034221;28;20101;-67
2022/09/04 04:46:18;;;;;;;13.02;5.30;;;;;;;-144.48;100.00;62369.91;5010444;28;20034;-69
2022/09/04 04:48:58;;;;;;;13.40;5.70;;;;;;;-144.48;100.00;62369.91;5020469;28;20021;-67
2022/09/04 04:51:38;;;;;;;10.73;5.50;;;;;;;-144.48;100.00;62369.91;5015024;28;20022;-65
2022/09/04 04:54:16;;;;;;;14.45;5.40;;;;;;;-144.48;100.00;62369.91;5012477;28;20395;-65
2022/09/04 04:56:53;;;;;;;11.40;5.18;;;;;;;-144.48;100.00;62369.91;5013518;28;20423;-67
2022/09/04 04:59:24;;;;;;;11.27;5.38;;;;;;;-144.48;100.00;62369.91;5018564;28;20410;-66
2022/09/04 05:01:49;;;;;;;12.25;5.45;;;;;;;-144.48;100.00;62369.91;5035010;28;20052;-66
2022/09/04 05:04:34;;;;;;;14.25;4.90;;;;;;;-144.48;100.00;62369.91;5033866;28;20061;-67
2022/09/04 05:07:17;;;;;;;12.20;5.03;;;;;;;-144.48;100.00;62369.91;5034179;28;20029;-66
2022/09/04 05:10:05;;;;;;;13.35;5.53;;;;;;;-144.48;100.00;62369.91;5024111;28;20056;-67
2022/09/04 05:12:45;;;;;;;14.68;5.55;;;;;;;-144.48;100.00;62369.91;5033759;28;20022;-67
2022/09/04 05:15:26;;;;;;;23.98;5.50;;;;;;;-144.48;100.00;62369.91;5020237;28;20070;-67
2022/09/04 05:18:00;;;;;;;15.10;5.15;;;;;;;-144.48;100.00;62369.91;5016322;28;20040;-69
2022/09/04 05:20:37;;;;;;;11.23;5.13;;;;;;;-144.48;100.00;62369.91;5029809;28;20102;-67
2022/09/04 05:23:16;;;;;;;9.95;4.63;;;;;;;-144.48;100.00;62369.91;5006848;28;20510;-66
2022/09/04 05:25:41;;;;;;;9.43;4.93;;;;;;;-144.48;100.00;62369.91;4996643;28;20058;-67
2022/09/04 05:28:21;;;;;;;13.35;5.32;;;;;;;-144.48;100.00;62369.91;5009221;28;20487;-67
2022/09/04 05:31:23;;;;;;;15.68;5.80;;;;;;;-144.48;100.00;62369.91;5026591;28;20025;-66
2022/09/04 05:34:26;;;;;;;10.90;5.18;;;;;;;-144.48;100.00;62369.91;5008250;28;20095;-67
2022/09/04 05:37:29;;;;;;;12.95;5.40;;;;;;;-144.48;100.00;62369.91;5025707;28;20099;-66
2022/09/04 05:40:25;;;;;;;11.35;5.32;;;;;;;-144.48;100.00;62369.91;5034232;28;20232;-67
2022/09/04 05:43:00;;;;;;;12.90;5.57;;;;;;;-144.48;100.00;62369.91;5033272;28;20152;-66
2022/09/04 05:45:34;;;;;;;8.75;5.10;;;;;;;-144.48;100.00;62369.91;5026680;28;20025;-64
2022/09/04 05:48:21;;;;;;;11.95;5.57;;;;;;;-144.48;100.00;62369.91;5025532;28;20095;-65
2022/09/04 05:50:55;;;;;;;10.73;5.05;;;;;;;-144.48;100.00;62369.91;5025434;23;20805;-73
2022/09/04 05:53:40;;;;;;;12.55;5.28;;;;;;;-144.48;100.00;62369.91;5028224;28;20519;-74
2022/09/04 05:56:39;;;;;;;14.15;5.28;;;;;;;-144.48;100.00;62369.91;5026204;28;20399;-72
2022/09/04 05:59:26;;;;;;;9.30;5.03;;;;;;;-144.48;100.00;62369.91;5031799;28;20452;-71
2022/09/04 06:02:24;;;;;;;15.43;5.03;;;;;;;-144.48;100.00;62369.91;5020177;28;20021;-72
2022/09/04 06:05:20;;;;;;;11.48;5.18;;;;;;;-144.48;100.00;62369.91;5031281;28;20029;-71
2022/09/04 06:08:00;;;;;;;10.63;5.93;;;;;;;-144.48;100.00;62369.91;5027858;28;20021;-73
2022/09/04 06:10:28;;;;;;;12.27;5.43;;;;;;;-144.48;100.00;62369.91;5018664;28;20519;-74
2022/09/04 06:13:18;;;;;;;17.55;5.70;;;;;;;-144.48;100.00;62369.91;5031069;28;20040;-72
2022/09/04 06:15:43;;;;;;;11.63;5.22;;;;;;;-144.48;100.00;62369.91;5031761;28;20025;-72
2022/09/04 06:18:36;;;;;;;17.15;5.38;;;;;;;-144.48;100.00;62369.91;5030952;28;20087;-72
2022/09/04 06:21:02;;;;;;;12.60;5.57;;;;;;;-144.48;100.00;62369.91;5031411;28;20033;-72
2022/09/04 06:23:53;;;;;;;14.25;5.40;;;;;;;-144.48;100.00;62369.91;5030295;28;20075;-70
2022/09/04 06:26:36;;;;;;;13.63;5.15;;;;;;;-144.48;100.00;62369.91;5030837;28;20517;-72
2022/09/04 06:29:11;;;;;;;12.70;5.22;;;;;;;-144.48;100.00;62369.91;5020131;28;20048;-73
2022/09/04 06:32:11;;;;;;;19.42;5.60;;;;;;;-144.48;100.00;62369.91;5025845;28;20116;-72
2022/09/04 06:34:55;;;;;;;10.18;5.07;;;;;;;-144.48;100.00;62369.91;5026097;28;20140;-74
2022/09/04 06:37:26;;;;;;;14.60;5.10;;;;;;;-144.48;100.00;62369.91;5015371;28;20255;-72
2022/09/04 06:40:01;;;;;;;8.95;4.90;;;;;;;-144.48;100.00;62369.91;5020957;28;20033;-72
2022/09/04 06:42:41;;;;;;;15.57;6.50;;;;;;;-144.48;100.00;62369.91;5030751;28;20021;-72
2022/09/04 06:45:44;;;;;;;12.00;5.88;;;;;;;-144.48;100.00;62369.91;5026337;28;20398;-72
2022/09/04 06:48:21;;;;;;;17.70;6.28;;;;;;;-144.48;100.00;62369.91;5028125;28;20504;-71
2022/09/04 06:51:06;;;;;;;10.80;5.15;;;;;;;-144.48;100.00;62369.91;5029733;28;20021;-74
2022/09/04 06:53:46;;;;;;;9.93;5.40;;;;;;;-144.48;100.00;62369.91;5022570;28;20590;-74
2022/09/04 06:56:54;;;;;;;11.48;5.07;;;;;;;-144.48;100.00;62369.91;5017580;28;20021;-70
2022/09/04 06:59:32;;;;;;;11.52;6.00;;;;;;;-144.48;100.00;62369.91;5016977;28;20049;-72
2022/09/04 07:02:36;;;;;;;13.88;6.05;;;;;;;-144.48;100.00;62369.91;5019243;28;20045;-74
2022/09/04 07:05:31;;;;;;;9.60;5.28;;;;;;;-144.48;100.00;62369.91;5021189;28;20061;-72
2022/09/04 07:08:17;;;;;;;16.23;6.10;;;;;;;-144.48;100.00;62369.91;5030349;28;20059;-72
2022/09/04 07:11:12;;;;;;;13.20;5.90;;;;;;;-144.48;100.00;62369.91;5028716;28;20075;-72
2022/09/04 07:13:59;;;;;;;11.73;5.25;;;;;;;-144.48;100.00;62369.91;5020625;28;20507;-73
2022/09/04 07:16:44;;;;;;;12.43;5.10;;;;;;;-144.48;100.00;62369.91;5024588;28;20030;-73
2022/09/04 07:19:24;;;;;;;11.55;5.28;;;;;;;-144.48;100.00;62369.91;5022658;28;20403;-71
2022/09/04 07:22:18;;;;;;;9.93;5.13;;;;;;;-144.48;100.00;62369.91;5019492;28;20025;-70
2022/09/04 07:25:17;;;;;;;16.50;5.93;;;;;;;-144.48;100.00;62369.91;5030656;28;20025;-73
2022/09/04 07:28:17;;;;;;;11.65;5.63;;;;;;;-144.48;100.00;62369.91;5027790;28;20188;-71
2022/09/04 07:30:57;;;;;;;12.85;5.45;;;;;;;-144.48;100.00;62369.91;5025924;28;20018;-73
2022/09/04 07:33:39;;;;;;;15.80;5.97;;;;;;;-144.48;100.00;62369.91;5024856;28;20031;-72
2022/09/04 07:36:47;;;;;;;9.98;5.60;;;;;;;-144.48;100.00;62369.91;5018091;28;20033;-73
2022/09/04 07:39:28;;;;;;;9.50;5.53;;;;;;;-144.48;100.00;62369.91;5029277;28;20075;-72
2022/09/04 07:41:59;;;;;;;12.77;5.18;;;;;;;-144.48;100.00;62369.91;5028361;28;20100;-72
2022/09/04 07:44:50;;;;;;;14.98;5.40;;;;;;;-144.48;100.00;62369.91;5030978;28;20055;-73
2022/09/04 07:47:29;;;;;;;11.98;5.35;;;;;;;-144.48;100.00;62369.91;5022904;28;20338;-73
2022/09/04 07:50:18;;;;;;;16.33;5.55;;;;;;;-144.48;100.00;62369.91;5032515;28;20119;-72
2022/09/04 07:52:43;;;;;;;;;;;;;;;-144.48;100.00;62369.91;5026266;28;20099;-72
2022/09/04 07:55:27;;;;;;;12.02;5.43;;;;;;;-144.48;100.00;62369.91;5029193;28;19909;-71
2022/09/04 07:58:12;;;;;;;11.43;5.05;;;;;;;-144.48;100.00;62369.91;5010883;28;20029;-70
2022/09/04 08:01:22;;;;;;;9.13;4.90;;;;;;;-144.48;100.00;62369.91;5028651;28;20041;-73
2022/09/04 08:03:53;;;;;;;11.98;4.82;;;;;;;-144.48;100.00;62369.91;5013259;28;20599;-73
2022/09/04 08:06:34;;;;;;;12.85;5.65;;;;;;;-144.48;100.00;62369.91;5027918;28;20026;-72
2022/09/04 08:09:08;;;;;;;12.52;5.43;;;;;;;-144.48;100.00;62369.91;5017648;28;20018;-71
2022/09/04 08:11:57;;;;;;;13.18;5.55;;;;;;;-144.48;100.00;62369.91;5015401;28;20025;-72
2022/09/04 08:14:36;;;;;;;13.82;5.40;;;;;;;-144.48;100.00;62369.91;5029217;28;20486;-71
2022/09/04 08:17:24;;;;;;;13.10;5.45;;;;;;;-144.48;100.00;62369.91;5027039;28;20040;-75
2022/09/04 08:20:11;;;;;;;9.45;4.88;;;;;;;-144.48;100.00;62369.91;5017282;28;20055;-70
2022/09/04 08:22:45;;;;;;;13.55;5.22;;;;;;;-144.48;100.00;62369.91;5028712;28;20148;-69
2022/09/04 08:25:19;;;;;;;10.43;4.88;;;;;;;-144.48;100.00;62369.91;5029740;28;20121;-68
2022/09/04 08:28:32;;;;;;;13.70;5.13;;;;;;;-144.48;100.00;62369.91;5014720;28;20181;-72
2022/09/04 08:31:17;;;;;;;8.57;4.60;;;;;;;-144.48;100.00;62369.91;5005124;28;20403;-71
2022/09/04 08:34:19;;;;;;;15.80;5.88;;;;;;;-144.48;100.00;62369.91;5022556;28;20368;-74
2022/09/04 08:36:44;;;;;;;11.18;4.93;;;;;;;-144.48;100.00;62369.91;5022710;28;20024;-72
2022/09/04 08:39:39;;;;;;;8.90;5.00;;;;;;;-144.48;100.00;62369.91;5022997;28;20026;-72
2022/09/04 08:42:07;;;;;;;8.63;4.63;;;;;;;-144.48;100.00;62369.91;5028723;28;20024;-70
2022/09/04 08:44:53;;;;;;;13.68;5.25;;;;;;;-144.48;100.00;62369.91;5019716;28;20034;-70
2022/09/04 08:47:54;;;;;;;9.48;4.75;;;;;;;-144.48;100.00;62369.91;5023868;28;20040;-69
2022/09/04 08:50:38;;;;;;;10.90;4.78;;;;;;;-144.48;100.00;62369.91;5007354;28;20068;-72
2022/09/04 08:53:13;;;;;;;13.85;4.70;;;;;;;-144.48;100.00;62369.91;5027492;28;20025;-71
2022/09/04 08:56:05;;;;;;;12.68;5.03;;;;;;;-144.48;100.00;62369.91;5028523;28;20029;-74
2022/09/04 08:58:39;;;;;;;10.23;5.20;;;;;;;-144.48;100.00;62369.91;5021053;28;20125;-71
2022/09/04 09:01:28;;;;;;;8.27;4.60;;;;;;;-144.48;100.00;62369.91;5019845;28;20080;-71
2022/09/04 09:03:56;;;;;;;7.97;4.70;;;;;;;-144.48;100.00;62369.91;5017884;28;20029;-72
2022/09/04 09:06:30;;;;;;;10.60;5.07;;;;;;;-144.48;100.00;62369.91;5012760;28;20479;-71
2022/09/04 09:09:17;;;;;;;11.50;4.30;;;;;;;-144.48;100.00;62369.91;5027300;28;20088;-71
2022/09/04 09:11:52;;;;;;;9.25;3.85;;;;;;;-144.48;100.00;62369.91;5015211;28;20080;-70
2022/09/04 09:14:52;;;;;;;15.57;4.32;;;;;;;-144.48;100.00;62369.91;5010435;28;20558;-72
2022/09/04 09:17:52;;;;;;;9.68;4.78;;;;;;;-144.48;100.00;62369.91;5022277;28;20036;-72
2022/09/04 09:20:27;;;;;;;8.10;3.95;;;;;;;-144.48;100.00;62369.91;5010398;28;20041;-70
2022/09/04 09:23:19;;;;;;;8.95;3.88;;;;;;;-144.48;100.00;62369.91;5019452;28;20129;-72
2022/09/04 09:25:47;;;;;;;9.93;4.25;;;;;;;-144.48;100.00;62369.91;5032255;28;20018;-74
2022/09/04 09:28:34;;;;;;;13.00;4.47;;;;;;;-144.48;100.00;62369.91;5032431;28;20026;-69
2022/09/04 09:31:21;;;;;;;8.82;4.32;;;;;;;-144.48;100.00;62369.91;5028064;28;20026;-72
2022/09/04 09:34:08;;;;;;;11.77;4.32;;;;;;;-144.48;100.00;62369.91;5029344;28;20094;-74
2022/09/04 09:36:42;;;;;;;10.10;4.38;;;;;;;-144.48;100.00;62369.91;5031615;28;20040;-70
2022/09/04 09:39:29;;;;;;;9.77;4.20;;;;;;;-144.48;100.00;62369.91;5018995;28;20025;-70
2022/09/04 09:42:12;;;;;;;7.88;3.70;;;;;;;-144.48;100.00;62369.91;5018845;28;20133;-74
2022/09/04 09:45:01;;;;;;;10.15;4.20;;;;;;;-144.48;100.00;62369.91;5011886;28;20029;-70
2022/09/04 09:47:56;;;;;;;7.65;3.65;;;;;;;-144.48;100.00;62369.91;5013657;28;20100;-70
2022/09/04 09:50:53;;;;;;;6.68;3.55;;;;;;;-144.48;100.00;62369.91;5013807;28;20080;-72
2022/09/04 09:53:56;;;;;;;8.40;3.97;;;;;;;-144.48;100.00;62369.91;5011901;28;20045;-73
2022/09/04 09:56:40;;;;;;;13.82;4.68;;;;;;;-144.48;100.00;62369.91;5013785;28;20683;-69
2022/09/04 09:59:24;;;;;;;10.63;3.90;;;;;;;-144.48;100.00;62369.91;5017763;28;20398;-71
2022/09/04 10:02:25;;;;;;;10.52;4.45;;;;;;;-144.48;100.00;62369.91;5013912;28;20394;-72
2022/09/04 10:05:12;;;;;;;13.68;4.43;;;;;;;-144.48;100.00;62369.91;5015212;28;20128;-71
2022/09/04 10:07:49;;;;;;;9.93;4.63;;;;;;;-144.48;100.00;62369.91;5018207;28;20706;-70
2022/09/04 10:10:52;;;;;;;12.45;4.32;;;;;;;-144.48;100.00;62369.91;5016150;28;20305;-74
2022/09/04 10:13:26;;;;;;;16.85;4.00;;;;;;;-144.48;100.00;62369.91;5015793;28;20046;-70
2022/09/04 10:16:17;;;;;;;10.35;3.83;;;;;;;-144.48;100.00;62369.91;5014002;28;20022;-71
2022/09/04 10:18:52;;;;;;;9.55;3.70;;;;;;;-144.48;100.00;62369.91;5015605;28;20033;-71
2022/09/04 10:21:46;;;;;;;7.35;3.35;;;;;;;-144.48;100.00;62369.91;5008820;28;20671;-71
2022/09/04 10:24:37;;;;;;;6.95;3.10;;;;;;;-144.48;100.00;62369.91;5015298;28;20076;-71
2022/09/04 10:27:47;;;;;;;8.35;3.88;;;;;;;-144.48;100.00;62369.91;5016267;28;20556;-71
2022/09/04 10:30:19;;;;;;;7.32;4.00;;;;;;;-144.48;100.00;62369.91;5011814;28;20046;-68
2022/09/04 10:33:36;;;;;;;7.07;3.95;;;;;;;-144.48;100.00;62369.91;5016908;28;20109;-71
2022/09/04 10:36:20;;;;;;;7.88;4.20;;;;;;;-144.48;100.00;62369.91;4971747;28;20054;-72
2022/09/04 10:42:22;;;;;;;8.45;3.97;;;;;;;-144.48;100.00;62369.91;5011722;28;20044;-72
2022/09/04 10:44:53;;;;;;;9.25;4.00;;;;;;;-144.48;100.00;62369.91;5015263;28;20038;-71
2022/09/04 10:47:44;;;;;;;9.75;4.15;;;;;;;-144.48;100.00;62369.91;5018999;28;20037;-70
2022/09/04 10:50:15;;;;;;;10.07;4.03;;;;;;;-144.48;100.00;62369.91;5013525;28;20041;-70
2022/09/04 10:53:04;;;;;;;11.15;4.03;;;;;;;-144.48;100.00;62369.91;5014283;28;20034;-71
2022/09/04 10:55:52;;;;;;;13.00;4.03;;;;;;;-144.48;100.00;62369.91;5014187;28;20053;-68
2022/09/04 10:58:41;;;;;;;7.07;3.30;;;;;;;-144.48;100.00;62369.91;5014468;28;20040;-68
2022/09/04 11:01:18;;;;;;;10.85;3.83;;;;;;;-144.48;100.00;62369.91;5012176;28;20103;-69
2022/09/04 11:04:12;;;;;;;8.40;4.00;;;;;;;-144.48;100.00;62369.91;5014321;28;20037;-71
2022/09/04 11:07:08;;;;;;;7.70;3.90;;;;;;;-144.48;100.00;62369.91;5013215;28;20301;-70
2022/09/04 11:09:58;;;;;;;12.13;4.07;;;;;;;-144.48;100.00;62369.91;5007520;28;20420;-68
2022/09/04 11:12:46;;;;;;;7.80;3.63;;;;;;;-144.48;100.00;62369.91;5015512;28;20071;-71
2022/09/04 11:15:33;;;;;;;7.28;3.40;;;;;;;-144.48;100.00;62369.91;5010562;28;20048;-70
2022/09/04 11:18:11;;;;;;;11.20;3.60;;;;;;;-144.48;100.00;62369.91;5010988;28;20542;-71
2022/09/04 11:20:57;;;;;;;6.77;3.67;;;;;;;-144.48;100.00;62369.91;5012678;28;20049;-69
2022/09/04 11:23:52;;;;;;;9.23;4.32;;;;;;;-144.48;100.00;62369.91;5011973;28;20286;-70
2022/09/04 11:26:34;;;;;;;8.10;4.03;;;;;;;-144.48;100.00;62369.91;5013797;28;20133;-72
2022/09/04 11:29:11;;;;;;;10.25;3.85;;;;;;;-144.48;100.00;62369.91;5012426;28;20017;-70
2022/09/04 11:31:58;;;;;;;9.40;4.20;;;;;;;-144.48;100.00;62369.91;5010992;28;20034;-72
2022/09/04 11:34:56;;;;;;;9.27;3.80;;;;;;;-144.48;100.00;62369.91;5008286;28;20045;-71
2022/09/04 11:37:41;;;;;;;9.10;3.78;;;;;;;-144.48;100.00;62369.91;5014130;28;20056;-71
2022/09/04 11:40:36;;;;;;;10.95;3.70;;;;;;;-144.48;100.00;62369.91;5011326;28;20038;-72
2022/09/04 11:43:01;;;;;;;7.82;3.83;;;;;;;-144.48;100.00;62369.91;5012088;28;20167;-70
2022/09/04 11:45:47;;;;;;;10.43;3.80;;;;;;;-144.48;100.00;62369.91;5009986;28;20148;-71
2022/09/04 11:48:12;;;;;;;11.27;4.13;;;;;;;-144.48;100.00;62369.91;5009743;28;20084;-73
2022/09/04 11:51:16;;;;;;;9.13;3.80;;;;;;;-144.48;100.00;62369.91;5013802;28;20434;-75
2022/09/04 11:54:14;;;;;;;10.93;4.05;;;;;;;-144.48;100.00;62369.91;5039664;23;20053;-90
2022/09/04 11:57:00;;;;;;;10.13;4.22;;;;;;;-144.48;100.00;62369.91;4989531;28;20057;-91
2022/09/04 11:59:50;;;;;;;7.00;3.88;;;;;;;-144.48;100.00;62369.91;5029364;28;20079;-90
2022/09/04 12:02:27;;;;;;;8.80;4.40;;;;;;;-144.48;100.00;62369.91;5030628;28;20026;-89
2022/09/04 12:05:27;;;;;;;8.73;3.90;;;;;;;-144.48;100.00;62369.91;5033452;28;20049;-90
2022/09/04 12:08:18;;;;;;;8.50;3.90;;;;;;;-144.48;100.00;62369.91;5014474;28;20025;-90
2022/09/04 12:11:20;;;;;;;9.75;3.97;;;;;;;-144.48;100.00;62369.91;5015745;28;20687;-89
2022/09/04 12:13:52;;;;;;;11.30;3.42;;;;;;;-144.48;100.00;62369.91;5014550;28;20528;-89
2022/09/04 12:16:37;;;;;;;11.43;4.03;;;;;;;-144.48;100.00;62369.91;5013761;28;20065;-89
2022/09/04 12:19:14;;;;;;;15.88;4.50;;;;;;;-144.48;100.00;62369.91;5010850;28;20061;-89
2022/09/04 12:22:04;;;;;;;8.05;3.53;;;;;;;-144.48;100.00;62369.91;5014946;28;20104;-88
2022/09/04 12:25:12;;;;;;;6.75;3.85;;;;;;;-144.48;100.00;62369.91;5020010;28;20099;-88